Aérodrome :
LOGIN :

S'inscrire | Disclaimer

   EN    FR    IT 

 










Légende :    VFR   VFR Marginal   IFR   IFR Intensif   IFR Très Intensif
Visi : 
Plafond : 
>= 8 km
>= 3000ft
5 à 8 km
1000 à 3000 ft
1500m à 5 km
500 à 1000 ft
800 à 1500m
200 à 500 ft
< 800m
< 200 ft
Symboles :   Orages  Brouillard  Fortes neiges  Fortes précipitations  Vent > 20 kt
SIGMETs :   Divers  Orages  Givrage  Turbulence  Onde Orograph.  Cendres Volcan.







- Altitude de l'aérodrome : 7 ft
- Code IATA : ESH
- Voir les cartes d'approche


EGKA - Shoreham

DERNIER METAR :
  • 201020Z 16005KT 8000 NSC 17/12 Q1023

METARs EXPIRÉS :
  • 200950Z VRB02KT CAVOK 21/14 Q1023
  • 200920Z 01004KT CAVOK 20/14 Q1023
  • 200850Z 35005KT CAVOK 19/13 Q1023
  • 200820Z 35007KT CAVOK 17/12 Q1023
  • 200750Z 35009KT CAVOK 15/12 Q1023

TAF AMD TAF EGKA
Valide du 20 à 10h jusqu'au 20 à 18h UTC


201025Z 2010/2018 VRB03KT 8000 NSC
BECMG 2011/2014 19010KT 9999
ATIS : +44 1273 467 372
Pas de NOTAMs connus pour ce terrain.



MET'MAP, la Météo Aéronautique d'un coup d'oeil ! - Copyright ORBIFLY Décembre 2007 - Disclaimer

ORBIFLY MET'MAP TEAM :

Programmation & Développement : Alexandra Zaïnal
Conception & Développement : Baudouin d'Aumeries
Co-Programmation & Développement : Marc-Olivier Méhu
Soutien technique & logistique : Manuel Goepfert

Contact : metmap@orbifly.com




SOURCES & CREDITS :

   NOAA